Flight Track Log - Related Links

Times and Time Zones

All times are in EDT time to prevent confusion due to time zone crossing. See the SWA1091 flight status page for this flight to view local times or setup timezone preferences in your user account.

Time Position Orientation Groundspeed Altitude Reporting Facility
EDT Latitude Longitude Course Direction KTS MPH feet Rate Location/Type
Sat 08:24:15 PM 33.9367 -118.5683 266° West 249 287 4,900  Level Los Angeles Center
Sat 08:25:17 PM 33.9494 -118.6569 280° West 267 307 7,700 2,000 Climbing Los Angeles Center
Sat 08:26:18 PM 34.0219 -118.6844 343° North 289 333 9,000 634 Climbing Los Angeles Center
Sat 08:27:20 PM 34.1019 -118.6583 15° North 286 329 9,000 968 Level Los Angeles Center
Sat 08:28:00 PM 34.3700 -118.6769 333° Northwest  Level Estimated
Sat 08:28:22 PM 34.1786 -118.6367 13° North 288 331 11,000  Level Los Angeles Center
Sat 08:29:23 PM 34.2681 -118.6711 342° North 330 380 13,600 2,634 Climbing Los Angeles Center
Sat 08:30:25 PM 34.3597 -118.7036 344° North 337 388 16,400 2,516 Climbing Los Angeles Center
Sat 08:31:27 PM 34.4547 -118.7358 344° North 353 406 18,800 2,195 Climbing Los Angeles Center
Sat 08:32:28 PM 34.5517 -118.7706 344° North 360 414 20,900 1,854 Climbing Los Angeles Center
Sat 08:33:30 PM 34.6517 -118.8081 343° North 373 429 22,600 1,839 Climbing Los Angeles Center
Sat 08:34:32 PM 34.7561 -118.8458 343° North 384 442 24,700 2,049 Climbing Los Angeles Center
Sat 08:35:33 PM 34.8819 -118.8969 342° North 392 451 26,800 1,902 Climbing Los Angeles Center
Sat 08:36:35 PM 34.9897 -118.9453 340° North 399 459 28,600 1,659 Climbing Los Angeles Center
Sat 08:37:36 PM 35.0956 -118.9928 340° North 406 467 30,200 1,756 Climbing Los Angeles Center
Sat 08:38:38 PM 35.2011 -119.0394 340° North 406 467 32,200 1,597 Climbing Los Angeles Center
Sat 08:39:40 PM 35.3031 -119.0847 340° North 397 457 33,500 1,268 Climbing Los Angeles Center
Sat 08:40:41 PM 35.4047 -119.1311 340° North 393 452 34,800 1,220 Climbing Los Angeles Center
Sat 08:41:43 PM 35.5036 -119.1767 339° North 387 445 36,000 585 Climbing Los Angeles Center
Sat 08:42:44 PM 35.6250 -119.2322 340° North 387 445 36,000  Level Los Angeles Center
Sat 08:43:46 PM 35.7275 -119.2792 340° North 391 450 36,000  Level Los Angeles Center
Sat 08:44:48 PM 35.8292 -119.3258 340° North 391 450 36,000  Level Los Angeles Center
Sat 08:45:24 PM 35.8900 -119.3536 340° North 395 455 36,000  Level Oakland Center
Sat 08:46:25 PM 35.9903 -119.4064 337° Northwest 395 455 36,000  Level Oakland Center
Sat 08:47:26 PM 36.0811 -119.4658 332° Northwest 379 436 36,000  Level Oakland Center
Sat 08:48:27 PM 36.1764 -119.5269 333° Northwest 382 440 36,000  Level Oakland Center
Sat 08:49:28 PM 36.2708 -119.5886 332° Northwest 382 440 36,000  Level Oakland Center
Sat 08:50:29 PM 36.3653 -119.6492 333° Northwest 383 441 36,000  Level Oakland Center
Sat 08:51:30 PM 36.4597 -119.7114 332° Northwest 383 441 36,000  Level Oakland Center
Sat 08:52:31 PM 36.5736 -119.7869 332° Northwest 384 442 36,000  Level Oakland Center
Sat 08:53:33 PM 36.6692 -119.8472 333° Northwest 384 442 36,000  Level Oakland Center
Sat 08:54:34 PM 36.7631 -119.9119 331° Northwest 385 443 36,000 -49 Level Oakland Center
Sat 08:55:35 PM 36.8583 -119.9744 332° Northwest 385 443 35,900  Descending Oakland Center
Sat 08:56:36 PM 36.9525 -120.0364 332° Northwest 385 443 36,000 49 Climbing Oakland Center
Sat 08:57:37 PM 37.0456 -120.0992 332° Northwest 384 442 36,000 -934 Level Oakland Center
Sat 08:58:38 PM 37.1336 -120.1564 333° Northwest 371 427 34,100 -2,607 Descending Oakland Center
Sat 08:59:39 PM 37.2244 -120.2189 331° Northwest 370 426 30,700 -3,885 Descending Oakland Center
Sat 09:00:40 PM 37.3492 -120.3019 332° Northwest 420 483 26,200 -3,393 Descending Oakland Center
Sat 09:01:41 PM 37.4472 -120.3722 330° Northwest 409 471 23,800 -2,341 Descending Oakland Center
Sat 09:02:43 PM 37.5308 -120.4575 321° Northwest 393 452 21,400 -1,615 Descending Oakland Center
Sat 09:03:51 PM 37.6333 -120.5500 324° Northwest 392 451 20,300 -934 Descending Northern Cal TRACON
Sat 09:04:45 PM 37.7031 -120.6303 318° Northwest 393 452 19,500 -939 Descending Oakland Center
Sat 09:05:46 PM 37.7856 -120.7144 321° Northwest 384 442 18,500 -1,082 Descending Oakland Center
Sat 09:06:47 PM 37.8622 -120.8058 317° Northwest 381 438 17,300 -1,082 Descending Oakland Center
Sat 09:07:48 PM 37.9342 -120.9000 314° West 376 433 16,300 -984 Descending Oakland Center
Sat 09:08:49 PM 38.0075 -120.9917 315° West 373 429 15,300 -934 Descending Oakland Center
Sat 09:09:50 PM 38.0803 -121.0844 315° West 371 427 14,400 -1,023 Descending Oakland Center
Sat 09:10:58 PM 38.1667 -121.2000 314° West 366 421 13,100 -1,031 Descending Northern Cal TRACON
Sat 09:11:58 PM 38.2333 -121.2833 316° Northwest 360 414 12,200 -950 Descending Northern Cal TRACON
Sat 09:12:58 PM 38.3167 -121.3833 317° Northwest 373 429 11,200 -1,050 Descending Northern Cal TRACON
Sat 09:13:58 PM 38.3833 -121.4667 316° Northwest 338 389 10,100 -1,050 Descending Northern Cal TRACON
Sat 09:14:58 PM 38.4333 -121.5500 307° West 313 360 9,100 -1,100 Descending Northern Cal TRACON
Sat 09:15:58 PM 38.5000 -121.6000 330° Northwest 278 320 7,900 -1,579 Descending Northern Cal TRACON
Sat 09:16:52 PM 38.5667 -121.6333 339° North 275 316 6,100 -1,316 Descending Northern Cal TRACON
Sat 09:17:52 PM 38.6167 -121.6833 322° Northwest 224 258 5,400 -1,286 Descending Northern Cal TRACON
Sat 09:18:58 PM 38.6833 -121.6833 360° North 220 253 3,400 -1,550 Descending Northern Cal TRACON
Sat 09:19:52 PM 38.7500 -121.6833 360° North 209 241 2,300 -1,150 Descending Northern Cal TRACON
Sat 09:20:58 PM 38.7667 -121.6333 67° East 175 201 1,100 -810 Descending Northern Cal TRACON
Sat 09:21:58 PM 38.7333 -121.6000 142° Southeast 140 161 600 -500 Descending Northern Cal TRACON

Login

Don't have an account? Register now (free) for customized features, flight alerts, and more!